Aledo, IL (61231)

4:19 PM CST on February 07, 2016 (GMT -0600)
KILALEDO2 | | Change Station
CLOSE
Current Station
Personal Weather Station
Location: Aledo, IL
Elevation: 735 ft
Nearby Weather Stations

Elev 735 ft 41.20 °N, 90.76 °W | Updated 3 seconds ago

Clear
Clear
45.1 °F
Feels Like 40 °F
N
9.6
Wind Variable Wind from NW
Gusts 12.8 mph

Today
High -- | Low -- °F
--% Chance of Precip.
Yesterday
High -- | Low -- °F
Precip. -- in
Pressure 29.81 in
Visibility 10.0 miles
Clouds Clear
Windchill 40 °F
Dew Point 29 °F
Humidity 54%
Rainfall 0.00 in
Snow Depth Not available.
7:08 AM 5:26 PM
Waning Crescent, 1% visible
METAR KMLI 072152Z 29013KT 10SM CLR 07/M03 A2980 RMK AO2 SLP093 T00721028
Pressure 29.81 in
Visibility 10.0 miles
Clouds Clear
Windchill 40 °F
Dew Point 29 °F
Humidity 54%
Rainfall 0.00 in
Snow Depth Not available.
7:08 AM 5:26 PM
Waning Crescent, 1% visible
METAR KMLI 072152Z 29013KT 10SM CLR 07/M03 A2980 RMK AO2 SLP093 T00721028

10-Day Weather Forecast

Almanac

Astronomy

Feb. 07, 2016 Rise Set
Actual Time
Civil Twilight
Nautical Twilight
Astronomical Twilight
Moon
Length of Visible Light
Length of Day
Tomorrow will be .
, % of the Moon is Illuminated

Today's Extremes

State Highs State Lows

Community

WunderPhotos

Upload Photos

1,891,309 photos uploaded!

WunderBlog® & News

Nearby

Air Quality

  Air Quality AQ Index Pollutant
Not available.

Snow Depth

Station Depth Elevation

Earthquake Activity

City Distance Mag. Time & Date
Minimum magnitude displayed is 2.5.

Coastal Water Temperatures

Place Temperature

Stations

Nearby Weather Stations

Station Location Temp. Windchill Dew Point Humidity Wind Precip. Elev Updated Type
                   

Watches & Warnings

There are currently no watches in effect.